createdAt,value
2019-02-05T00:00:04.644Z,4.00
2019-02-05T00:01:34.002Z,4.00
2019-02-05T00:03:58.438Z,4.50
2019-02-05T00:05:01.166Z,6.00
2019-02-05T00:06:04.460Z,5.00
2019-02-05T00:07:07.271Z,6.00
2019-02-05T00:08:10.085Z,6.00
2019-02-05T00:09:12.903Z,6.50
2019-02-05T00:10:15.795Z,6.50
2019-02-05T00:11:18.606Z,6.00
2019-02-05T00:12:21.467Z,6.00
2019-02-05T00:13:24.643Z,7.00
2019-02-05T00:14:27.527Z,5.50
2019-02-05T00:15:30.344Z,5.00
2019-02-05T00:16:33.151Z,6.00
2019-02-05T00:17:36.154Z,6.00
2019-02-05T00:18:39.464Z,8.00
2019-02-05T00:19:44.283Z,6.50
2019-02-05T00:20:47.083Z,6.00
2019-02-05T00:21:49.947Z,7.00
2019-02-05T00:22:52.813Z,6.50
2019-02-05T00:23:55.643Z,6.50
2019-02-05T00:24:58.485Z,5.50
2019-02-05T00:26:06.256Z,8.00
2019-02-05T00:27:06.082Z,6.00
2019-02-05T00:28:08.982Z,7.50
2019-02-05T00:29:12.263Z,6.50
2019-02-05T00:30:15.532Z,7.00
2019-02-05T00:31:18.708Z,6.00
2019-02-05T00:32:21.907Z,6.00
2019-02-05T00:33:26.776Z,8.00
2019-02-05T00:34:31.288Z,6.50
2019-02-05T00:35:34.215Z,4.00
2019-02-05T00:36:37.487Z,5.50
2019-02-05T00:37:43.913Z,7.50
2019-02-05T00:38:48.423Z,6.00
2019-02-05T00:39:51.250Z,8.50
2019-02-05T00:40:55.249Z,6.00
2019-02-05T00:41:58.145Z,6.00
2019-02-05T00:43:01.081Z,8.00
2019-02-05T00:44:04.090Z,6.00
2019-02-05T00:45:07.480Z,6.00
2019-02-05T00:46:10.398Z,6.00
2019-02-05T00:47:13.263Z,6.00
2019-02-05T00:48:16.120Z,7.50
2019-02-05T00:49:18.963Z,6.00
2019-02-05T00:50:21.831Z,7.50
2019-02-05T00:51:27.876Z,4.50
2019-02-05T00:52:31.244Z,8.00
2019-02-05T00:53:33.988Z,6.00
2019-02-05T00:54:36.814Z,6.00
2019-02-05T00:55:39.609Z,6.00
2019-02-05T00:56:42.491Z,6.50
2019-02-05T00:57:45.863Z,4.00
2019-02-05T00:58:52.926Z,8.50
2019-02-05T00:59:55.758Z,6.00
2019-02-05T01:00:58.587Z,8.50
2019-02-05T01:02:01.435Z,7.00
2019-02-05T01:03:04.752Z,8.00
2019-02-05T01:04:07.901Z,9.00
2019-02-05T01:05:11.016Z,5.50
2019-02-05T01:06:13.790Z,6.00
2019-02-05T01:07:16.613Z,6.00
2019-02-05T01:08:19.704Z,8.00
2019-02-05T01:09:22.510Z,7.00
2019-02-05T01:10:25.732Z,6.50
2019-02-05T01:11:28.970Z,6.00
2019-02-05T01:12:31.839Z,7.50
2019-02-05T01:13:36.309Z,8.00
2019-02-05T01:14:39.568Z,8.50
2019-02-05T01:15:44.195Z,6.50
2019-02-05T01:16:49.525Z,5.50
2019-02-05T01:17:52.527Z,6.00
2019-02-05T01:18:55.406Z,5.50
2019-02-05T01:19:58.298Z,6.00
2019-02-05T01:21:01.113Z,5.50
2019-02-05T01:22:07.161Z,5.50
2019-02-05T01:23:09.982Z,7.50
2019-02-05T01:24:12.795Z,8.00
2019-02-05T01:25:15.814Z,6.50
2019-02-05T01:26:28.687Z,7.00
2019-02-05T01:27:23.145Z,6.00
2019-02-05T01:28:26.287Z,6.00
2019-02-05T01:29:30.483Z,6.00
2019-02-05T01:30:33.310Z,7.00
2019-02-05T01:31:36.160Z,6.00
2019-02-05T01:32:38.972Z,6.50
2019-02-05T01:33:41.840Z,6.00
2019-02-05T01:34:44.677Z,6.00
2019-02-05T01:35:47.596Z,6.00
2019-02-05T01:36:50.425Z,6.00
2019-02-05T01:37:53.455Z,6.00
2019-02-05T01:38:56.365Z,5.50
2019-02-05T01:39:59.435Z,8.00
2019-02-05T01:41:02.307Z,8.50
2019-02-05T01:42:05.490Z,7.00
2019-02-05T01:43:08.288Z,6.00
2019-02-05T01:44:11.090Z,8.50
2019-02-05T01:45:14.197Z,6.50
2019-02-05T01:46:17.113Z,6.50
2019-02-05T01:47:19.954Z,7.00
2019-02-05T01:48:23.255Z,8.00
2019-02-05T01:49:26.116Z,6.00
2019-02-05T01:50:29.970Z,6.50
2019-02-05T01:51:33.452Z,6.00
2019-02-05T01:52:36.418Z,6.00
2019-02-05T01:53:39.496Z,7.00
2019-02-05T01:54:42.304Z,4.00
2019-02-05T01:55:45.203Z,6.00
2019-02-05T01:56:48.446Z,7.50
2019-02-05T01:57:51.542Z,8.00
2019-02-05T01:58:54.351Z,6.00
2019-02-05T01:59:57.248Z,7.50
2019-02-05T02:01:03.879Z,4.00
2019-02-05T02:02:06.706Z,7.50
2019-02-05T02:03:09.708Z,7.00
2019-02-05T02:04:13.205Z,6.00
2019-02-05T02:05:16.139Z,6.00
2019-02-05T02:06:18.995Z,6.00
2019-02-05T02:07:21.840Z,7.50
2019-02-05T02:08:28.501Z,8.00
2019-02-05T02:09:31.583Z,7.50
2019-02-05T02:10:34.730Z,6.00
2019-02-05T02:11:37.541Z,6.50
2019-02-05T02:12:40.356Z,6.00
2019-02-05T02:13:43.192Z,6.00
2019-02-05T02:14:45.991Z,7.00
2019-02-05T02:15:49.179Z,8.00
2019-02-05T02:16:53.632Z,7.50
2019-02-05T02:17:56.414Z,8.50
2019-02-05T02:18:59.224Z,7.50
2019-02-05T02:20:04.052Z,5.00
2019-02-05T02:21:06.890Z,6.00
2019-02-05T02:22:10.553Z,6.00
2019-02-05T02:23:14.285Z,6.00
2019-02-05T02:24:17.124Z,6.00
2019-02-05T02:25:20.375Z,6.00
2019-02-05T02:26:23.179Z,8.00
2019-02-05T02:27:26.007Z,7.00
2019-02-05T02:28:28.876Z,6.50
2019-02-05T02:29:32.817Z,7.50
2019-02-05T02:30:35.656Z,6.50
2019-02-05T02:31:38.462Z,4.50
2019-02-05T02:32:41.286Z,6.00
2019-02-05T02:33:46.171Z,6.50
2019-02-05T02:34:48.967Z,8.00
2019-02-05T02:35:52.119Z,7.50
2019-02-05T02:36:54.928Z,9.50
2019-02-05T02:37:57.733Z,6.00
2019-02-05T02:39:01.030Z,8.00
2019-02-05T02:40:03.950Z,6.00
2019-02-05T02:41:06.845Z,6.00
2019-02-05T02:42:10.339Z,7.00
2019-02-05T02:43:13.180Z,6.00
2019-02-05T02:44:16.116Z,8.00
2019-02-05T02:45:18.986Z,6.00
2019-02-05T02:46:22.069Z,8.00
2019-02-05T02:47:27.743Z,7.00
2019-02-05T02:48:29.475Z,4.00
2019-02-05T02:49:32.391Z,6.50
2019-02-05T02:50:35.256Z,6.00
2019-02-05T02:51:38.421Z,5.00
2019-02-05T02:52:41.377Z,7.00
2019-02-05T02:53:44.482Z,6.50
2019-02-05T02:54:48.054Z,8.00
2019-02-05T02:55:50.934Z,6.00
2019-02-05T02:57:04.530Z,6.50
2019-02-05T02:57:58.302Z,6.50
2019-02-05T02:59:01.095Z,6.00
2019-02-05T03:00:03.929Z,8.00
2019-02-05T03:01:07.077Z,8.00
2019-02-05T03:02:09.880Z,6.50
2019-02-05T03:03:12.723Z,7.50
2019-02-05T03:04:17.766Z,6.50
2019-02-05T03:05:20.576Z,7.50
2019-02-05T03:06:23.855Z,7.50
2019-02-05T03:07:27.302Z,6.00
2019-02-05T03:08:31.573Z,7.00
2019-02-05T03:09:34.432Z,8.00
2019-02-05T03:10:37.225Z,6.00
2019-02-05T03:11:40.108Z,8.00
2019-02-05T03:12:42.916Z,5.50
2019-02-05T03:13:45.793Z,6.00
2019-02-05T03:14:48.990Z,6.00
2019-02-05T03:15:51.783Z,8.00
2019-02-05T03:16:54.722Z,7.50
2019-02-05T03:17:57.629Z,7.00
2019-02-05T03:19:00.448Z,7.00
2019-02-05T03:20:03.287Z,6.50
2019-02-05T03:21:06.103Z,6.00
2019-02-05T03:22:08.977Z,8.00
2019-02-05T03:23:11.848Z,6.00
2019-02-05T03:24:18.328Z,7.50
2019-02-05T03:25:19.526Z,7.00
2019-02-05T03:26:22.401Z,8.00
2019-02-05T03:27:25.186Z,8.00
2019-02-05T03:28:28.749Z,8.00
2019-02-05T03:29:32.081Z,8.00
2019-02-05T03:30:35.221Z,10.00
2019-02-05T03:31:38.029Z,6.50
2019-02-05T03:32:40.849Z,9.50
2019-02-05T03:33:43.763Z,8.00
2019-02-05T03:34:46.671Z,6.00
2019-02-05T03:35:49.526Z,6.50
2019-02-05T03:36:52.673Z,7.50
2019-02-05T03:37:55.538Z,7.00
2019-02-05T03:38:58.409Z,7.50
2019-02-05T03:40:01.516Z,8.50
2019-02-05T03:41:04.304Z,6.00
2019-02-05T03:42:07.109Z,10.00
2019-02-05T03:43:10.229Z,7.00
2019-02-05T03:44:13.127Z,8.00
2019-02-05T03:45:16.214Z,9.50
2019-02-05T03:46:19.125Z,7.00
2019-02-05T03:47:22.010Z,6.50
2019-02-05T03:48:24.852Z,8.00
2019-02-05T03:49:27.927Z,8.00
2019-02-05T03:50:31.446Z,7.00
2019-02-05T03:51:34.685Z,7.50
2019-02-05T03:52:37.558Z,8.00
2019-02-05T03:53:40.405Z,7.50
2019-02-05T03:54:43.206Z,8.50
2019-02-05T03:55:46.419Z,8.00
2019-02-05T03:56:49.314Z,6.00
2019-02-05T03:57:52.177Z,10.00
2019-02-05T03:58:54.972Z,8.00
2019-02-05T03:59:57.736Z,10.50
2019-02-05T04:01:00.541Z,8.00
2019-02-05T04:02:03.706Z,8.00
2019-02-05T04:03:06.974Z,6.00
2019-02-05T04:04:09.780Z,7.00
2019-02-05T04:05:13.019Z,6.00
2019-02-05T04:06:15.846Z,8.00
2019-02-05T04:07:19.752Z,6.00
2019-02-05T04:08:24.070Z,7.50
2019-02-05T04:09:27.397Z,8.00
2019-02-05T04:10:30.205Z,8.50
2019-02-05T04:11:33.046Z,8.00
2019-02-05T04:12:36.263Z,9.50
2019-02-05T04:13:39.137Z,7.00
2019-02-05T04:14:47.825Z,9.00
2019-02-05T04:15:52.835Z,9.50
2019-02-05T04:16:55.976Z,8.00
2019-02-05T04:17:58.815Z,10.00
2019-02-05T04:19:02.121Z,8.50
2019-02-05T04:20:04.991Z,10.00
2019-02-05T04:21:08.095Z,8.00
2019-02-05T04:22:10.879Z,10.00
2019-02-05T04:23:13.688Z,8.00
2019-02-05T04:24:17.624Z,8.00
2019-02-05T04:25:20.927Z,8.00
2019-02-05T04:26:23.802Z,8.00
2019-02-05T04:27:28.526Z,7.00
2019-02-05T04:28:31.336Z,6.00
2019-02-05T04:29:34.429Z,8.50
2019-02-05T04:30:37.338Z,6.00
2019-02-05T04:31:41.007Z,7.50
2019-02-05T04:32:43.841Z,6.00
2019-02-05T04:33:46.946Z,6.50
2019-02-05T04:34:49.738Z,8.00
2019-02-05T04:35:52.626Z,9.50
2019-02-05T04:36:57.504Z,9.50
2019-02-05T04:37:59.930Z,9.50
2019-02-05T04:39:02.737Z,9.50
2019-02-05T04:40:05.867Z,7.00
2019-02-05T04:41:08.866Z,8.00
2019-02-05T04:42:12.027Z,10.00
2019-02-05T04:43:14.870Z,8.00
2019-02-05T04:44:17.673Z,8.50
2019-02-05T04:45:20.487Z,8.00
2019-02-05T04:46:23.375Z,8.00
2019-02-05T04:47:26.237Z,8.00
2019-02-05T04:48:29.024Z,9.50
2019-02-05T04:49:31.877Z,6.50
2019-02-05T04:50:34.746Z,8.50
2019-02-05T04:51:37.913Z,9.00
2019-02-05T04:52:40.713Z,8.50
2019-02-05T04:53:43.884Z,8.50
2019-02-05T04:54:46.718Z,8.00
2019-02-05T04:55:49.521Z,8.00
2019-02-05T04:56:52.791Z,8.00
2019-02-05T04:57:59.141Z,8.00
2019-02-05T04:59:00.767Z,8.00
2019-02-05T05:00:03.565Z,8.00
2019-02-05T05:01:06.391Z,8.00
2019-02-05T05:02:09.497Z,6.00
2019-02-05T05:03:12.400Z,10.00
2019-02-05T05:04:15.490Z,8.50
2019-02-05T05:05:18.340Z,10.00
2019-02-05T05:06:21.467Z,10.00
2019-02-05T05:07:24.324Z,8.00
2019-02-05T05:08:27.189Z,9.50
2019-02-05T05:09:30.023Z,10.00
2019-02-05T05:10:33.152Z,9.00
2019-02-05T05:11:35.968Z,8.00
2019-02-05T05:12:38.788Z,10.00
2019-02-05T05:13:41.651Z,10.50
2019-02-05T05:14:44.628Z,8.00
2019-02-05T05:15:47.796Z,8.00
2019-02-05T05:16:50.706Z,10.00
2019-02-05T05:17:53.944Z,10.00
2019-02-05T05:18:56.844Z,8.00
2019-02-05T05:20:01.211Z,9.50
2019-02-05T05:21:04.182Z,8.00
2019-02-05T05:22:06.977Z,8.50
2019-02-05T05:23:12.939Z,9.50
2019-02-05T05:24:16.819Z,7.50
2019-02-05T05:25:19.701Z,10.00
2019-02-05T05:26:22.608Z,9.00
2019-02-05T05:27:25.862Z,10.50
2019-02-05T05:28:28.857Z,8.00
2019-02-05T05:29:33.820Z,6.00
2019-02-05T05:30:36.983Z,8.00
2019-02-05T05:31:39.806Z,8.00
2019-02-05T05:32:43.003Z,9.00
2019-02-05T05:33:46.099Z,8.00
2019-02-05T05:34:49.964Z,9.00
2019-02-05T05:35:53.288Z,8.00
2019-02-05T05:36:56.174Z,6.50
2019-02-05T05:37:59.000Z,8.00
2019-02-05T05:39:03.861Z,7.00
2019-02-05T05:40:06.691Z,10.00
2019-02-05T05:41:09.643Z,8.00
2019-02-05T05:42:13.499Z,7.50
2019-02-05T05:43:16.712Z,8.50
2019-02-05T05:44:21.694Z,9.50
2019-02-05T05:45:24.499Z,9.00
2019-02-05T05:46:27.435Z,8.50
2019-02-05T05:47:30.298Z,9.00
2019-02-05T05:48:33.553Z,8.00
2019-02-05T05:49:36.432Z,9.50
2019-02-05T05:50:41.775Z,10.00
2019-02-05T05:51:47.009Z,8.00
2019-02-05T05:52:49.860Z,9.50
2019-02-05T05:53:53.255Z,10.00
2019-02-05T05:54:56.309Z,9.50
2019-02-05T05:56:01.478Z,8.50
2019-02-05T05:57:04.322Z,10.50
2019-02-05T05:58:07.147Z,10.00
2019-02-05T05:59:09.987Z,9.50
2019-02-05T06:00:13.406Z,10.00
2019-02-05T06:01:16.846Z,10.00
2019-02-05T06:02:21.342Z,9.50
2019-02-05T06:03:24.611Z,8.00
2019-02-05T06:04:27.417Z,7.00
2019-02-05T06:05:30.242Z,8.00
2019-02-05T06:06:33.408Z,8.00
2019-02-05T06:07:36.988Z,9.00
2019-02-05T06:08:39.781Z,6.00
2019-02-05T06:09:42.660Z,9.00
2019-02-05T06:10:45.457Z,8.00
2019-02-05T06:11:48.300Z,11.00
2019-02-05T06:12:51.405Z,12.00
2019-02-05T06:13:54.221Z,14.00
2019-02-05T06:14:57.048Z,12.00
2019-02-05T06:16:01.936Z,11.00
2019-02-05T06:17:04.434Z,10.50
2019-02-05T06:18:07.280Z,10.50
2019-02-05T06:19:10.770Z,9.50
2019-02-05T06:20:13.602Z,8.50
2019-02-05T06:21:16.555Z,8.00
2019-02-05T06:22:19.487Z,9.50
2019-02-05T06:23:26.945Z,9.00
2019-02-05T06:24:29.809Z,12.00
2019-02-05T06:25:33.160Z,8.00
2019-02-05T06:26:36.556Z,6.50
2019-02-05T06:27:39.411Z,10.00
2019-02-05T06:28:47.244Z,8.00
2019-02-05T06:29:52.785Z,9.50
2019-02-05T06:43:52.153Z,12.00
2019-02-05T06:44:55.321Z,8.50
2019-02-05T06:45:58.146Z,7.25
2019-02-05T06:47:00.937Z,10.50
2019-02-05T06:48:04.417Z,7.50
2019-02-05T06:49:08.232Z,7.50
2019-02-05T06:50:11.042Z,10.00
2019-02-05T06:51:13.873Z,9.00
2019-02-05T06:52:16.684Z,10.50
2019-02-05T06:53:19.624Z,7.50
2019-02-05T06:54:28.250Z,8.75
2019-02-05T06:55:31.511Z,7.75
2019-02-05T06:56:34.825Z,9.75
2019-02-05T06:57:37.629Z,9.75
2019-02-05T06:58:46.618Z,9.75
2019-02-05T06:59:45.054Z,11.25
2019-02-05T07:00:47.970Z,9.50
2019-02-05T07:01:51.635Z,9.00
2019-02-05T07:02:59.021Z,10.00
2019-02-05T07:04:01.946Z,10.00
2019-02-05T07:05:04.838Z,10.00
2019-02-05T07:06:08.162Z,8.00
2019-02-05T07:07:11.563Z,8.00
2019-02-05T07:08:15.377Z,10.00
2019-02-05T07:09:18.259Z,10.00
2019-02-05T07:10:21.117Z,8.00
2019-02-05T07:11:23.981Z,9.50
2019-02-05T07:12:32.082Z,10.00
2019-02-05T07:13:39.311Z,10.00
2019-02-05T07:14:42.485Z,10.00
2019-02-05T07:15:46.099Z,10.00
2019-02-05T07:16:49.780Z,10.50
2019-02-05T07:17:55.262Z,10.00
2019-02-05T07:18:58.147Z,10.50
2019-02-05T07:20:01.077Z,13.00
2019-02-05T07:21:04.218Z,10.00
2019-02-05T07:22:11.970Z,11.00
2019-02-05T07:23:14.612Z,10.50
2019-02-05T07:24:29.121Z,9.00
2019-02-05T07:25:37.263Z,9.00
2019-02-05T07:26:40.611Z,9.00
2019-02-05T07:27:46.779Z,9.00
2019-02-05T07:28:57.953Z,10.00
2019-02-05T07:29:54.601Z,10.50
2019-02-05T07:31:01.733Z,8.00
2019-02-05T07:32:05.118Z,9.00
2019-02-05T07:33:10.324Z,9.50
2019-02-05T07:34:16.271Z,9.00
2019-02-05T07:35:21.531Z,11.50
2019-02-05T07:36:24.688Z,9.50
2019-02-05T07:37:27.718Z,11.50
2019-02-05T07:38:33.730Z,7.50
2019-02-05T07:39:39.159Z,10.00
2019-02-05T07:40:43.675Z,10.00
2019-02-05T07:41:46.578Z,10.00
2019-02-05T07:42:49.614Z,13.00
2019-02-05T07:43:52.572Z,11.00
2019-02-05T07:44:55.821Z,10.50
2019-02-05T07:45:58.763Z,11.50
2019-02-05T07:47:01.901Z,9.00
2019-02-05T07:48:04.776Z,8.00
2019-02-05T07:49:07.765Z,10.00
2019-02-05T07:50:11.226Z,10.00
2019-02-05T07:51:14.831Z,7.00
2019-02-05T07:52:19.978Z,10.00
2019-02-05T07:53:22.845Z,10.50
2019-02-05T07:54:25.796Z,12.00
2019-02-05T07:55:28.745Z,9.50
2019-02-05T07:56:31.730Z,10.00
2019-02-05T07:57:34.957Z,10.00
2019-02-05T07:58:38.174Z,10.00
2019-02-05T07:59:43.665Z,10.00
2019-02-05T08:00:47.253Z,9.50
2019-02-05T08:01:50.129Z,10.00
2019-02-05T08:02:55.293Z,10.00
2019-02-05T08:03:58.753Z,9.00
2019-02-05T08:05:03.138Z,12.00
2019-02-05T08:06:08.188Z,10.00
2019-02-05T08:07:14.237Z,10.50
2019-02-05T08:08:17.219Z,9.50
2019-02-05T08:09:20.206Z,10.50
2019-02-05T08:10:23.645Z,8.50
2019-02-05T08:11:27.107Z,10.00
2019-02-05T08:12:31.353Z,12.00
2019-02-05T08:13:34.386Z,12.50
2019-02-05T08:14:37.722Z,12.00
2019-02-05T08:15:42.872Z,15.00
2019-02-05T08:16:48.062Z,8.50
2019-02-05T08:17:50.772Z,11.00
2019-02-05T08:18:56.826Z,10.00
2019-02-05T08:20:00.359Z,11.00
2019-02-05T08:21:03.323Z,8.00
2019-02-05T08:22:06.330Z,10.00
2019-02-05T08:23:09.949Z,12.00
2019-02-05T08:24:12.938Z,8.00
2019-02-05T08:25:15.823Z,10.00
2019-02-05T08:26:19.336Z,10.00
2019-02-05T08:27:22.665Z,11.50
2019-02-05T08:28:25.607Z,8.00
2019-02-05T08:29:31.334Z,12.00
2019-02-05T08:30:34.325Z,10.50
2019-02-05T08:31:37.636Z,11.00
2019-02-05T08:32:40.620Z,11.50
2019-02-05T08:33:51.406Z,9.50
2019-02-05T08:34:54.629Z,12.50
2019-02-05T08:35:59.046Z,12.00
2019-02-05T08:37:02.266Z,10.00
2019-02-05T08:38:05.143Z,12.50
2019-02-05T08:39:08.150Z,10.00
2019-02-05T08:40:11.291Z,14.00
2019-02-05T08:41:16.182Z,12.00
2019-02-05T08:42:19.068Z,11.00
2019-02-05T08:43:27.954Z,10.50
2019-02-05T08:44:29.552Z,10.00
2019-02-05T08:45:32.542Z,11.00
2019-02-05T08:46:35.512Z,13.00
2019-02-05T08:47:38.648Z,12.00
2019-02-05T08:48:41.677Z,10.00
2019-02-05T08:49:47.234Z,13.50
2019-02-05T08:51:02.057Z,10.00
2019-02-05T08:52:00.551Z,8.00
2019-02-05T08:53:03.495Z,12.00
2019-02-05T08:54:06.720Z,14.00
2019-02-05T08:55:11.614Z,11.00
2019-02-05T08:56:16.313Z,14.50
2019-02-05T08:57:19.704Z,9.00
2019-02-05T08:58:30.516Z,12.00
2019-02-05T08:59:27.139Z,12.50
2019-02-05T09:00:35.513Z,10.00
2019-02-05T09:01:40.747Z,12.00
2019-02-05T09:02:43.770Z,11.00
2019-02-05T09:03:46.715Z,13.50
2019-02-05T09:04:49.949Z,14.00
2019-02-05T09:05:52.851Z,10.00
2019-02-05T09:06:55.748Z,8.00
2019-02-05T09:07:58.646Z,13.00
2019-02-05T09:09:01.629Z,9.50
2019-02-05T09:10:07.062Z,10.00
2019-02-05T09:11:12.332Z,14.50
2019-02-05T09:12:17.930Z,10.00
2019-02-05T09:13:20.615Z,12.00
2019-02-05T09:14:26.024Z,13.00
2019-02-05T09:15:29.843Z,10.00
2019-02-05T09:16:36.260Z,11.00
2019-02-05T09:17:39.172Z,11.50
2019-02-05T09:18:44.888Z,13.00
2019-02-05T09:19:47.422Z,12.00
2019-02-05T09:20:50.330Z,11.00
2019-02-05T09:21:53.380Z,12.00
2019-02-05T09:22:56.344Z,13.00
2019-02-05T09:24:02.011Z,14.50
2019-02-05T09:25:07.079Z,10.50
2019-02-05T09:26:12.813Z,11.50
2019-02-05T09:27:15.868Z,10.00
2019-02-05T09:28:18.859Z,12.00
2019-02-05T09:29:33.171Z,13.50
2019-02-05T09:30:33.095Z,10.00
2019-02-05T09:31:37.193Z,10.00
2019-02-05T09:32:40.270Z,11.00
2019-02-05T09:33:43.374Z,11.50
2019-02-05T09:34:46.327Z,12.50
2019-02-05T09:35:51.472Z,8.00
2019-02-05T09:36:54.497Z,10.00
2019-02-05T09:37:58.100Z,11.50
2019-02-05T09:39:01.238Z,10.50
2019-02-05T09:40:04.227Z,10.50
2019-02-05T09:41:07.491Z,11.50
2019-02-05T09:42:10.342Z,11.50
2019-02-05T09:43:13.771Z,12.50
2019-02-05T09:44:17.250Z,10.50
2019-02-05T09:45:20.488Z,12.00
2019-02-05T09:46:28.220Z,13.50
2019-02-05T09:47:34.617Z,14.00
2019-02-05T09:48:37.568Z,17.50
2019-02-05T09:49:40.445Z,10.00
2019-02-05T09:50:44.964Z,12.50
2019-02-05T09:51:48.261Z,12.50
2019-02-05T09:52:51.548Z,11.00
2019-02-05T09:53:54.542Z,14.00
2019-02-05T09:54:57.775Z,11.50
2019-02-05T09:56:00.834Z,14.50
2019-02-05T09:57:10.593Z,13.00
2019-02-05T09:58:16.288Z,12.00
2019-02-05T09:59:19.157Z,10.50
2019-02-05T10:00:22.456Z,12.00
2019-02-05T10:01:25.778Z,9.50
2019-02-05T10:02:29.186Z,14.00
2019-02-05T10:03:35.935Z,11.50
2019-02-05T10:04:41.577Z,11.00
2019-02-05T10:05:59.165Z,13.50
2019-02-05T10:07:04.804Z,10.50
2019-02-05T10:08:07.711Z,12.00
2019-02-05T10:09:10.809Z,12.00
2019-02-05T10:10:14.079Z,12.50
2019-02-05T10:11:18.366Z,11.00
2019-02-05T10:12:25.915Z,10.00
2019-02-05T10:13:29.026Z,12.00
2019-02-05T10:14:32.601Z,9.50
2019-02-05T10:15:35.561Z,13.50
2019-02-05T10:16:40.292Z,14.00
2019-02-05T10:17:43.622Z,11.00
2019-02-05T10:18:47.338Z,14.00
2019-02-05T10:19:50.312Z,14.00
2019-02-05T10:20:53.458Z,8.50
2019-02-05T10:21:56.514Z,14.00
2019-02-05T10:23:08.555Z,12.75
2019-02-05T10:24:11.485Z,12.50
2019-02-05T10:25:15.122Z,13.00
2019-02-05T10:26:26.269Z,16.25
2019-02-05T10:27:36.551Z,11.75
2019-02-05T10:28:39.501Z,11.00
2019-02-05T10:29:57.785Z,13.50
2019-02-05T10:30:53.376Z,12.50
2019-02-05T10:31:57.277Z,14.00
2019-02-05T10:33:00.296Z,12.00
2019-02-05T10:34:04.026Z,14.00
2019-02-05T10:35:07.164Z,13.50
2019-02-05T10:36:10.697Z,12.00
2019-02-05T10:37:13.589Z,13.00
2019-02-05T10:38:18.549Z,10.50
2019-02-05T10:39:21.636Z,13.00
2019-02-05T10:40:25.499Z,14.25
2019-02-05T10:41:30.137Z,11.00
2019-02-05T10:42:33.516Z,12.00
2019-02-05T10:43:36.419Z,11.50
2019-02-05T10:44:39.370Z,14.00
2019-02-05T10:45:42.300Z,10.00
2019-02-05T10:46:45.738Z,12.00
2019-02-05T10:47:48.918Z,14.00
2019-02-05T10:48:55.183Z,13.00
2019-02-05T10:50:00.432Z,11.00
2019-02-05T10:51:03.477Z,13.50
2019-02-05T10:52:06.969Z,12.00
2019-02-05T10:53:09.913Z,13.00
2019-02-05T10:54:12.853Z,12.00
2019-02-05T10:55:17.704Z,11.50
2019-02-05T10:56:20.693Z,10.50
2019-02-05T10:57:23.683Z,11.50
2019-02-05T10:58:26.610Z,14.00
2019-02-05T10:59:30.057Z,13.00
2019-02-05T11:00:34.179Z,12.50
2019-02-05T11:01:39.071Z,10.00
2019-02-05T11:02:44.861Z,11.00
2019-02-05T11:03:49.914Z,10.50
2019-02-05T11:04:52.885Z,13.50
2019-02-05T11:05:56.263Z,10.00
2019-02-05T11:06:59.279Z,11.00
2019-02-05T11:08:02.514Z,10.00
2019-02-05T11:09:06.840Z,11.75
2019-02-05T11:10:09.848Z,8.00
2019-02-05T11:11:16.076Z,11.50
2019-02-05T11:12:21.388Z,13.50
2019-02-05T11:13:25.939Z,10.50
2019-02-05T11:14:32.186Z,14.50
2019-02-05T11:15:36.989Z,12.00
2019-02-05T11:16:41.413Z,12.50
2019-02-05T11:18:03.098Z,12.00
2019-02-05T11:19:09.161Z,11.00
2019-02-05T11:20:31.479Z,10.50
2019-02-05T11:21:35.870Z,9.50
2019-02-05T11:22:39.157Z,12.50
2019-02-05T11:23:42.453Z,10.00
2019-02-05T11:24:45.604Z,9.50
2019-02-05T11:25:48.646Z,9.75
2019-02-05T11:26:51.953Z,11.75
2019-02-05T11:27:55.899Z,10.75
2019-02-05T11:28:58.807Z,13.75
2019-02-05T11:30:01.798Z,11.75
2019-02-05T11:43:02.906Z,15.50
2019-02-05T11:44:07.070Z,11.00
2019-02-05T11:45:10.528Z,11.50
2019-02-05T11:46:16.470Z,9.75
2019-02-05T11:47:20.027Z,10.75
2019-02-05T11:48:26.792Z,13.25
2019-02-05T11:49:31.322Z,13.00
2019-02-05T11:50:35.077Z,11.50
2019-02-05T11:51:40.697Z,11.00
2019-02-05T11:52:43.753Z,11.00
2019-02-05T11:53:48.188Z,13.00
2019-02-05T11:54:53.207Z,12.50
2019-02-05T11:55:58.138Z,11.50
2019-02-05T11:57:08.146Z,12.00
2019-02-05T11:58:15.933Z,9.00
2019-02-05T11:59:21.805Z,9.00
2019-02-05T12:00:38.404Z,10.00
2019-02-05T12:01:41.374Z,23.00
2019-02-05T12:02:45.194Z,23.50
2019-02-05T12:03:48.135Z,14.00
2019-02-05T12:04:50.997Z,11.50
2019-02-05T12:05:53.971Z,10.00
2019-02-05T12:06:57.152Z,10.00
2019-02-05T12:08:00.173Z,10.00
2019-02-05T12:09:03.651Z,12.00
2019-02-05T12:10:06.764Z,10.00
2019-02-05T12:11:10.016Z,11.00
2019-02-05T12:12:15.409Z,11.50
2019-02-05T12:13:18.700Z,11.00
2019-02-05T12:14:21.723Z,9.50
2019-02-05T12:15:24.701Z,11.00
2019-02-05T12:16:28.170Z,10.00
2019-02-05T12:17:31.403Z,10.50
2019-02-05T12:18:34.731Z,9.50
2019-02-05T12:19:38.548Z,9.50
2019-02-05T12:20:42.629Z,10.00
2019-02-05T12:21:45.609Z,11.00
2019-02-05T12:22:49.016Z,9.00
2019-02-05T12:23:52.384Z,10.00
2019-02-05T12:24:55.610Z,10.50
2019-02-05T12:26:08.851Z,11.00
2019-02-05T12:27:11.822Z,10.25
2019-02-05T12:28:16.983Z,12.75
2019-02-05T12:29:19.908Z,9.25
2019-02-05T12:30:22.922Z,7.75
2019-02-05T12:31:25.822Z,9.75
2019-02-05T12:32:29.039Z,11.75
2019-02-05T12:33:32.035Z,11.25
2019-02-05T12:34:36.867Z,8.75
2019-02-05T12:35:42.505Z,9.25
2019-02-05T12:36:45.386Z,8.25
2019-02-05T12:37:48.705Z,8.25
2019-02-05T12:38:55.034Z,7.75
2019-02-05T12:40:00.669Z,6.75
2019-02-05T12:41:05.491Z,10.25
2019-02-05T12:42:08.404Z,11.75
2019-02-05T12:43:13.270Z,7.75
2019-02-05T12:44:16.153Z,10.75
2019-02-05T12:45:19.738Z,7.25
2019-02-05T12:46:22.745Z,9.75
2019-02-05T12:47:25.653Z,11.75
2019-02-05T12:48:28.686Z,10.25
2019-02-05T12:49:33.132Z,9.75
2019-02-05T12:50:38.204Z,6.25
2019-02-05T12:51:43.221Z,8.75
2019-02-05T12:52:49.566Z,8.25
2019-02-05T12:53:55.564Z,8.00
2019-02-05T12:55:12.181Z,8.50
2019-02-05T12:56:05.384Z,8.00
2019-02-05T12:57:08.373Z,6.00
2019-02-05T12:58:11.709Z,10.00
2019-02-05T12:59:14.606Z,10.00
2019-02-05T13:00:18.016Z,8.00
2019-02-05T13:01:23.695Z,10.00
2019-02-05T13:02:26.669Z,8.00
2019-02-05T13:03:29.554Z,9.75
2019-02-05T13:04:34.363Z,9.75
2019-02-05T13:05:37.273Z,8.75
2019-02-05T13:06:49.863Z,9.25
2019-02-05T13:07:55.936Z,10.00
2019-02-05T13:08:58.899Z,10.00
2019-02-05T13:10:02.263Z,10.50
2019-02-05T13:11:08.339Z,7.25
2019-02-05T13:12:11.328Z,7.00
2019-02-05T13:13:14.182Z,7.75
2019-02-05T13:14:17.145Z,7.75
2019-02-05T13:15:20.223Z,8.25
2019-02-05T13:16:23.161Z,8.25
2019-02-05T13:17:26.517Z,8.25
2019-02-05T13:18:32.388Z,9.75
2019-02-05T13:19:35.327Z,9.75
2019-02-05T13:20:49.236Z,7.75
2019-02-05T13:21:45.573Z,9.25
2019-02-05T13:22:48.485Z,11.25
2019-02-05T13:23:54.144Z,8.75
2019-02-05T13:25:00.026Z,9.75
2019-02-05T13:26:02.939Z,9.25
2019-02-05T13:27:06.978Z,10.25
2019-02-05T13:28:16.279Z,7.25
2019-02-05T13:29:22.314Z,11.75
2019-02-05T13:30:26.070Z,8.75
2019-02-05T13:31:30.272Z,9.25
2019-02-05T13:32:33.350Z,6.00
2019-02-05T13:33:36.320Z,9.75
2019-02-05T13:34:40.763Z,8.75
2019-02-05T13:35:45.246Z,8.75
2019-02-05T13:36:50.060Z,11.75
2019-02-05T13:37:53.397Z,9.25
2019-02-05T13:38:56.381Z,11.25
2019-02-05T13:39:59.256Z,9.75
2019-02-05T13:41:02.485Z,9.25
2019-02-05T13:42:06.683Z,6.50
2019-02-05T13:43:10.116Z,8.50
2019-02-05T13:44:18.309Z,9.75
2019-02-05T13:45:21.815Z,9.25
2019-02-05T13:46:24.894Z,9.75
2019-02-05T13:47:27.929Z,8.75
2019-02-05T13:48:31.332Z,7.00
2019-02-05T13:49:36.821Z,9.75
2019-02-05T13:50:39.692Z,9.75
2019-02-05T13:51:42.752Z,11.75
2019-02-05T13:52:48.851Z,8.25
2019-02-05T13:53:52.546Z,9.25
2019-02-05T13:54:58.272Z,9.75
2019-02-05T13:56:05.031Z,11.25
2019-02-05T13:57:06.499Z,11.75
2019-02-05T13:58:10.585Z,9.75
2019-02-05T13:59:13.882Z,10.50
2019-02-05T14:00:19.320Z,7.00
2019-02-05T14:01:22.242Z,9.25
2019-02-05T14:02:25.468Z,11.25
2019-02-05T14:03:28.536Z,9.00
2019-02-05T14:04:31.455Z,7.00
2019-02-05T14:05:34.360Z,9.50
2019-02-05T14:06:37.307Z,11.00
2019-02-05T14:07:40.499Z,11.50
2019-02-05T14:08:43.453Z,9.50
2019-02-05T14:09:46.602Z,11.00
2019-02-05T14:10:49.581Z,8.00
2019-02-05T14:11:52.483Z,9.00
2019-02-05T14:12:55.505Z,9.75
2019-02-05T14:13:58.856Z,7.75
2019-02-05T14:15:02.861Z,11.00
2019-02-05T14:16:05.744Z,9.75
2019-02-05T14:17:08.627Z,10.75
2019-02-05T14:18:11.652Z,8.25
2019-02-05T14:19:15.677Z,10.00
2019-02-05T14:20:18.859Z,10.25
2019-02-05T14:21:22.377Z,10.50
2019-02-05T14:22:25.728Z,10.75
2019-02-05T14:23:28.703Z,10.75